sensor_id;sensor_type;location;lat;lon;timestamp;temperature;humidity
35668;DHT22;22158;59.280;17.806;2023-06-10T00:01:57;6.80;98.10
35668;DHT22;22158;59.280;17.806;2023-06-10T00:04:25;6.80;98.60
35668;DHT22;22158;59.280;17.806;2023-06-10T00:06:51;6.70;98.80
35668;DHT22;22158;59.280;17.806;2023-06-10T00:09:17;6.70;99.10
35668;DHT22;22158;59.280;17.806;2023-06-10T00:11:44;6.70;99.40
35668;DHT22;22158;59.280;17.806;2023-06-10T00:14:10;6.70;99.30
35668;DHT22;22158;59.280;17.806;2023-06-10T00:16:36;6.70;99.40
35668;DHT22;22158;59.280;17.806;2023-06-10T00:19:03;6.60;99.70
35668;DHT22;22158;59.280;17.806;2023-06-10T00:21:30;6.60;99.80
35668;DHT22;22158;59.280;17.806;2023-06-10T00:23:56;6.50;99.90
35668;DHT22;22158;59.280;17.806;2023-06-10T00:26:24;6.50;99.80
35668;DHT22;22158;59.280;17.806;2023-06-10T00:28:51;6.50;99.90
35668;DHT22;22158;59.280;17.806;2023-06-10T00:31:17;6.40;99.90
35668;DHT22;22158;59.280;17.806;2023-06-10T00:33:43;6.40;99.90
35668;DHT22;22158;59.280;17.806;2023-06-10T00:36:09;6.40;99.90
35668;DHT22;22158;59.280;17.806;2023-06-10T00:38:34;6.40;99.90
35668;DHT22;22158;59.280;17.806;2023-06-10T00:41:00;6.40;99.90
35668;DHT22;22158;59.280;17.806;2023-06-10T00:43:26;6.40;99.90
35668;DHT22;22158;59.280;17.806;2023-06-10T00:45:51;6.40;99.90
35668;DHT22;22158;59.280;17.806;2023-06-10T00:48:18;6.30;99.90
35668;DHT22;22158;59.280;17.806;2023-06-10T00:50:45;6.30;99.90
35668;DHT22;22158;59.280;17.806;2023-06-10T00:53:12;6.20;99.90
35668;DHT22;22158;59.280;17.806;2023-06-10T00:55:38;6.20;99.90
35668;DHT22;22158;59.280;17.806;2023-06-10T00:58:03;6.20;99.90
35668;DHT22;22158;59.280;17.806;2023-06-10T01:00:29;6.20;99.90
35668;DHT22;22158;59.280;17.806;2023-06-10T01:02:55;6.20;99.90
35668;DHT22;22158;59.280;17.806;2023-06-10T01:05:21;6.10;99.90
35668;DHT22;22158;59.280;17.806;2023-06-10T01:08:03;6.10;99.90
35668;DHT22;22158;59.280;17.806;2023-06-10T01:10:53;6.10;99.90
35668;DHT22;22158;59.280;17.806;2023-06-10T01:13:20;6.10;99.90
35668;DHT22;22158;59.280;17.806;2023-06-10T01:15:49;6.00;99.90
35668;DHT22;22158;59.280;17.806;2023-06-10T01:18:15;6.00;99.90
35668;DHT22;22158;59.280;17.806;2023-06-10T01:20:42;5.90;99.90
35668;DHT22;22158;59.280;17.806;2023-06-10T01:23:10;5.90;99.90
35668;DHT22;22158;59.280;17.806;2023-06-10T01:25:45;6.00;99.90
35668;DHT22;22158;59.280;17.806;2023-06-10T01:28:31;5.90;99.90
35668;DHT22;22158;59.280;17.806;2023-06-10T01:34:23;5.90;99.90
35668;DHT22;22158;59.280;17.806;2023-06-10T01:36:50;5.90;99.90
35668;DHT22;22158;59.280;17.806;2023-06-10T01:39:18;5.80;99.90
35668;DHT22;22158;59.280;17.806;2023-06-10T01:41:46;5.80;99.90
35668;DHT22;22158;59.280;17.806;2023-06-10T01:44:21;5.70;99.90
35668;DHT22;22158;59.280;17.806;2023-06-10T01:46:46;5.60;99.90
35668;DHT22;22158;59.280;17.806;2023-06-10T01:49:12;5.60;99.90
35668;DHT22;22158;59.280;17.806;2023-06-10T01:51:38;5.60;99.90
35668;DHT22;22158;59.280;17.806;2023-06-10T01:54:04;5.60;99.90
35668;DHT22;22158;59.280;17.806;2023-06-10T01:56:30;5.60;99.90
35668;DHT22;22158;59.280;17.806;2023-06-10T01:58:56;5.60;99.90
35668;DHT22;22158;59.280;17.806;2023-06-10T02:01:25;5.60;99.90
35668;DHT22;22158;59.280;17.806;2023-06-10T02:03:50;5.60;99.90
35668;DHT22;22158;59.280;17.806;2023-06-10T02:06:16;5.60;99.90
35668;DHT22;22158;59.280;17.806;2023-06-10T02:08:42;5.70;99.90
35668;DHT22;22158;59.280;17.806;2023-06-10T02:11:07;5.70;99.90
35668;DHT22;22158;59.280;17.806;2023-06-10T02:13:33;5.60;99.90
35668;DHT22;22158;59.280;17.806;2023-06-10T02:15:58;5.60;99.90
35668;DHT22;22158;59.280;17.806;2023-06-10T02:18:25;5.60;99.90
35668;DHT22;22158;59.280;17.806;2023-06-10T02:20:52;5.60;99.90
35668;DHT22;22158;59.280;17.806;2023-06-10T02:23:18;5.60;99.90
35668;DHT22;22158;59.280;17.806;2023-06-10T02:25:43;5.60;99.90
35668;DHT22;22158;59.280;17.806;2023-06-10T02:28:09;5.60;99.90
35668;DHT22;22158;59.280;17.806;2023-06-10T02:30:35;5.70;99.90
35668;DHT22;22158;59.280;17.806;2023-06-10T02:33:01;5.70;99.90
35668;DHT22;22158;59.280;17.806;2023-06-10T02:35:27;5.70;99.90
35668;DHT22;22158;59.280;17.806;2023-06-10T02:37:52;5.80;99.90
35668;DHT22;22158;59.280;17.806;2023-06-10T02:40:18;5.80;99.90
35668;DHT22;22158;59.280;17.806;2023-06-10T02:42:43;5.90;99.90
35668;DHT22;22158;59.280;17.806;2023-06-10T02:45:09;5.90;99.90
35668;DHT22;22158;59.280;17.806;2023-06-10T02:47:37;6.00;99.90
35668;DHT22;22158;59.280;17.806;2023-06-10T02:50:03;5.90;99.90
35668;DHT22;22158;59.280;17.806;2023-06-10T02:52:29;6.00;99.90
35668;DHT22;22158;59.280;17.806;2023-06-10T02:54:55;6.00;99.90
35668;DHT22;22158;59.280;17.806;2023-06-10T02:57:21;6.00;99.90
35668;DHT22;22158;59.280;17.806;2023-06-10T02:59:46;6.00;99.90
35668;DHT22;22158;59.280;17.806;2023-06-10T03:02:12;6.10;99.90
35668;DHT22;22158;59.280;17.806;2023-06-10T03:04:38;6.10;99.90
35668;DHT22;22158;59.280;17.806;2023-06-10T03:07:03;6.20;99.90
35668;DHT22;22158;59.280;17.806;2023-06-10T03:09:32;6.30;99.90
35668;DHT22;22158;59.280;17.806;2023-06-10T03:11:58;6.40;99.90
35668;DHT22;22158;59.280;17.806;2023-06-10T03:14:25;6.50;99.90
35668;DHT22;22158;59.280;17.806;2023-06-10T03:16:51;6.60;99.90
35668;DHT22;22158;59.280;17.806;2023-06-10T03:19:16;6.70;99.90
35668;DHT22;22158;59.280;17.806;2023-06-10T03:21:44;6.80;99.90
35668;DHT22;22158;59.280;17.806;2023-06-10T03:24:10;6.90;99.90
35668;DHT22;22158;59.280;17.806;2023-06-10T03:26:36;7.00;99.90
35668;DHT22;22158;59.280;17.806;2023-06-10T03:29:02;7.10;99.90
35668;DHT22;22158;59.280;17.806;2023-06-10T03:31:27;7.20;99.90
35668;DHT22;22158;59.280;17.806;2023-06-10T03:33:53;7.30;99.90
35668;DHT22;22158;59.280;17.806;2023-06-10T03:36:18;7.40;99.90
35668;DHT22;22158;59.280;17.806;2023-06-10T03:38:44;7.40;99.90
35668;DHT22;22158;59.280;17.806;2023-06-10T03:41:09;7.50;99.90
35668;DHT22;22158;59.280;17.806;2023-06-10T03:43:35;7.60;99.90
35668;DHT22;22158;59.280;17.806;2023-06-10T03:46:01;7.70;99.90
35668;DHT22;22158;59.280;17.806;2023-06-10T03:48:26;7.90;99.90
35668;DHT22;22158;59.280;17.806;2023-06-10T03:50:52;8.00;99.90
35668;DHT22;22158;59.280;17.806;2023-06-10T03:53:18;8.10;99.90
35668;DHT22;22158;59.280;17.806;2023-06-10T03:55:43;8.20;99.90
35668;DHT22;22158;59.280;17.806;2023-06-10T03:58:10;8.30;99.90
35668;DHT22;22158;59.280;17.806;2023-06-10T04:00:38;8.40;99.90
35668;DHT22;22158;59.280;17.806;2023-06-10T04:03:08;8.50;99.90
35668;DHT22;22158;59.280;17.806;2023-06-10T04:05:34;8.50;99.90
35668;DHT22;22158;59.280;17.806;2023-06-10T04:08:00;8.60;99.90
35668;DHT22;22158;59.280;17.806;2023-06-10T04:10:27;8.70;99.90
35668;DHT22;22158;59.280;17.806;2023-06-10T04:12:52;8.70;99.90
35668;DHT22;22158;59.280;17.806;2023-06-10T04:15:18;8.80;99.90
35668;DHT22;22158;59.280;17.806;2023-06-10T04:17:43;8.90;99.90
35668;DHT22;22158;59.280;17.806;2023-06-10T04:20:09;8.90;99.90
35668;DHT22;22158;59.280;17.806;2023-06-10T04:22:35;9.00;99.90
35668;DHT22;22158;59.280;17.806;2023-06-10T04:25:01;9.00;99.90
35668;DHT22;22158;59.280;17.806;2023-06-10T04:27:29;9.10;99.90
35668;DHT22;22158;59.280;17.806;2023-06-10T04:29:55;9.10;99.90
35668;DHT22;22158;59.280;17.806;2023-06-10T04:32:21;9.20;99.90
35668;DHT22;22158;59.280;17.806;2023-06-10T04:34:46;9.20;99.90
35668;DHT22;22158;59.280;17.806;2023-06-10T04:37:12;9.30;99.90
35668;DHT22;22158;59.280;17.806;2023-06-10T04:39:38;9.30;99.90
35668;DHT22;22158;59.280;17.806;2023-06-10T04:42:03;9.40;99.90
35668;DHT22;22158;59.280;17.806;2023-06-10T04:44:30;9.50;99.90
35668;DHT22;22158;59.280;17.806;2023-06-10T04:46:56;9.60;99.90
35668;DHT22;22158;59.280;17.806;2023-06-10T04:49:22;9.60;99.90
35668;DHT22;22158;59.280;17.806;2023-06-10T04:51:47;9.70;99.90
35668;DHT22;22158;59.280;17.806;2023-06-10T04:54:13;9.80;99.70
35668;DHT22;22158;59.280;17.806;2023-06-10T04:56:38;9.90;99.40
35668;DHT22;22158;59.280;17.806;2023-06-10T04:59:04;9.90;99.00
35668;DHT22;22158;59.280;17.806;2023-06-10T05:01:30;10.00;98.70
35668;DHT22;22158;59.280;17.806;2023-06-10T05:03:55;10.10;98.60
35668;DHT22;22158;59.280;17.806;2023-06-10T05:06:21;10.20;98.20
35668;DHT22;22158;59.280;17.806;2023-06-10T05:08:47;10.20;98.10
35668;DHT22;22158;59.280;17.806;2023-06-10T05:11:12;10.20;97.90
35668;DHT22;22158;59.280;17.806;2023-06-10T05:13:38;10.30;97.60
35668;DHT22;22158;59.280;17.806;2023-06-10T05:16:05;10.40;97.70
35668;DHT22;22158;59.280;17.806;2023-06-10T05:18:31;10.50;97.80
35668;DHT22;22158;59.280;17.806;2023-06-10T05:20:57;10.60;97.90
35668;DHT22;22158;59.280;17.806;2023-06-10T05:23:22;10.60;97.50
35668;DHT22;22158;59.280;17.806;2023-06-10T05:25:48;10.70;97.40
35668;DHT22;22158;59.280;17.806;2023-06-10T05:28:14;10.80;97.10
35668;DHT22;22158;59.280;17.806;2023-06-10T05:30:39;10.90;96.60
35668;DHT22;22158;59.280;17.806;2023-06-10T05:33:05;11.00;96.30
35668;DHT22;22158;59.280;17.806;2023-06-10T05:35:31;11.00;96.30
35668;DHT22;22158;59.280;17.806;2023-06-10T05:37:56;11.10;96.30
35668;DHT22;22158;59.280;17.806;2023-06-10T05:40:22;11.10;96.40
35668;DHT22;22158;59.280;17.806;2023-06-10T05:42:48;11.20;96.70
35668;DHT22;22158;59.280;17.806;2023-06-10T05:45:14;11.30;96.10
35668;DHT22;22158;59.280;17.806;2023-06-10T05:47:40;11.40;95.80
35668;DHT22;22158;59.280;17.806;2023-06-10T05:50:06;11.50;96.20
35668;DHT22;22158;59.280;17.806;2023-06-10T05:52:33;11.70;95.40
35668;DHT22;22158;59.280;17.806;2023-06-10T05:54:59;11.80;95.50
35668;DHT22;22158;59.280;17.806;2023-06-10T05:57:25;11.80;95.30
35668;DHT22;22158;59.280;17.806;2023-06-10T05:59:51;11.90;94.50
35668;DHT22;22158;59.280;17.806;2023-06-10T06:02:17;11.90;94.80
35668;DHT22;22158;59.280;17.806;2023-06-10T06:04:42;12.00;95.30
35668;DHT22;22158;59.280;17.806;2023-06-10T06:07:08;12.10;94.80
35668;DHT22;22158;59.280;17.806;2023-06-10T06:09:34;12.10;94.70
35668;DHT22;22158;59.280;17.806;2023-06-10T06:11:59;12.20;95.40
35668;DHT22;22158;59.280;17.806;2023-06-10T06:14:25;12.30;95.50
35668;DHT22;22158;59.280;17.806;2023-06-10T06:16:50;12.40;94.70
35668;DHT22;22158;59.280;17.806;2023-06-10T06:19:16;12.50;94.90
35668;DHT22;22158;59.280;17.806;2023-06-10T06:21:41;12.60;94.10
35668;DHT22;22158;59.280;17.806;2023-06-10T06:24:07;12.70;94.20
35668;DHT22;22158;59.280;17.806;2023-06-10T06:26:33;12.80;94.10
35668;DHT22;22158;59.280;17.806;2023-06-10T06:28:58;12.90;93.70
35668;DHT22;22158;59.280;17.806;2023-06-10T06:31:24;13.00;93.80
35668;DHT22;22158;59.280;17.806;2023-06-10T06:33:49;13.00;93.20
35668;DHT22;22158;59.280;17.806;2023-06-10T06:36:15;13.10;92.90
35668;DHT22;22158;59.280;17.806;2023-06-10T06:38:40;13.00;92.80
35668;DHT22;22158;59.280;17.806;2023-06-10T06:41:06;13.10;92.70
35668;DHT22;22158;59.280;17.806;2023-06-10T06:43:32;13.20;92.80
35668;DHT22;22158;59.280;17.806;2023-06-10T06:45:58;13.20;92.40
35668;DHT22;22158;59.280;17.806;2023-06-10T06:48:23;13.30;92.00
35668;DHT22;22158;59.280;17.806;2023-06-10T06:50:49;13.30;91.80
35668;DHT22;22158;59.280;17.806;2023-06-10T06:53:15;13.40;92.00
35668;DHT22;22158;59.280;17.806;2023-06-10T06:55:40;13.50;91.40
35668;DHT22;22158;59.280;17.806;2023-06-10T06:58:06;13.60;91.70
35668;DHT22;22158;59.280;17.806;2023-06-10T07:00:32;13.70;91.50
35668;DHT22;22158;59.280;17.806;2023-06-10T07:02:58;13.80;91.30
35668;DHT22;22158;59.280;17.806;2023-06-10T07:05:24;13.90;91.00
35668;DHT22;22158;59.280;17.806;2023-06-10T07:07:53;14.00;90.70
35668;DHT22;22158;59.280;17.806;2023-06-10T07:10:24;14.00;90.20
35668;DHT22;22158;59.280;17.806;2023-06-10T07:12:50;14.10;89.50
35668;DHT22;22158;59.280;17.806;2023-06-10T07:15:16;14.10;90.50
35668;DHT22;22158;59.280;17.806;2023-06-10T07:17:41;14.30;90.50
35668;DHT22;22158;59.280;17.806;2023-06-10T07:20:07;14.40;90.10
35668;DHT22;22158;59.280;17.806;2023-06-10T07:22:33;14.50;89.30
35668;DHT22;22158;59.280;17.806;2023-06-10T07:24:58;14.60;90.00
35668;DHT22;22158;59.280;17.806;2023-06-10T07:27:24;14.70;89.60
35668;DHT22;22158;59.280;17.806;2023-06-10T07:29:50;14.80;87.30
35668;DHT22;22158;59.280;17.806;2023-06-10T07:32:16;15.00;89.10
35668;DHT22;22158;59.280;17.806;2023-06-10T07:34:42;15.10;88.30
35668;DHT22;22158;59.280;17.806;2023-06-10T07:37:07;15.20;88.60
35668;DHT22;22158;59.280;17.806;2023-06-10T07:39:34;15.30;84.00
35668;DHT22;22158;59.280;17.806;2023-06-10T07:42:00;15.40;84.30
35668;DHT22;22158;59.280;17.806;2023-06-10T07:44:25;15.50;83.20
35668;DHT22;22158;59.280;17.806;2023-06-10T07:46:51;15.60;84.20
35668;DHT22;22158;59.280;17.806;2023-06-10T07:49:17;15.80;83.80
35668;DHT22;22158;59.280;17.806;2023-06-10T07:51:42;15.90;82.70
35668;DHT22;22158;59.280;17.806;2023-06-10T07:54:08;16.00;80.60
35668;DHT22;22158;59.280;17.806;2023-06-10T07:56:33;16.10;80.90
35668;DHT22;22158;59.280;17.806;2023-06-10T07:58:59;16.20;79.70
35668;DHT22;22158;59.280;17.806;2023-06-10T08:01:25;16.30;76.90
35668;DHT22;22158;59.280;17.806;2023-06-10T08:03:51;16.40;77.00
35668;DHT22;22158;59.280;17.806;2023-06-10T08:06:16;16.60;77.70
35668;DHT22;22158;59.280;17.806;2023-06-10T08:08:43;16.70;78.40
35668;DHT22;22158;59.280;17.806;2023-06-10T08:11:11;16.80;76.60
35668;DHT22;22158;59.280;17.806;2023-06-10T08:13:37;16.90;73.10
35668;DHT22;22158;59.280;17.806;2023-06-10T08:16:03;16.90;69.80
35668;DHT22;22158;59.280;17.806;2023-06-10T08:18:29;16.90;66.30
35668;DHT22;22158;59.280;17.806;2023-06-10T08:20:55;16.90;70.60
35668;DHT22;22158;59.280;17.806;2023-06-10T08:23:21;17.00;71.20
35668;DHT22;22158;59.280;17.806;2023-06-10T08:25:46;16.90;69.80
35668;DHT22;22158;59.280;17.806;2023-06-10T08:28:12;17.10;69.90
35668;DHT22;22158;59.280;17.806;2023-06-10T08:30:37;17.30;70.40
35668;DHT22;22158;59.280;17.806;2023-06-10T08:33:03;17.40;73.40
35668;DHT22;22158;59.280;17.806;2023-06-10T08:35:29;17.50;71.00
35668;DHT22;22158;59.280;17.806;2023-06-10T08:37:55;17.60;70.40
35668;DHT22;22158;59.280;17.806;2023-06-10T08:40:20;17.70;69.90
35668;DHT22;22158;59.280;17.806;2023-06-10T08:43:06;17.80;72.40
35668;DHT22;22158;59.280;17.806;2023-06-10T08:45:35;17.90;72.10
35668;DHT22;22158;59.280;17.806;2023-06-10T08:48:03;17.80;67.40
35668;DHT22;22158;59.280;17.806;2023-06-10T08:50:36;17.70;67.30
35668;DHT22;22158;59.280;17.806;2023-06-10T08:53:05;17.70;68.00
35668;DHT22;22158;59.280;17.806;2023-06-10T08:55:33;17.80;69.80
35668;DHT22;22158;59.280;17.806;2023-06-10T08:58:00;17.90;68.80
35668;DHT22;22158;59.280;17.806;2023-06-10T09:00:27;18.10;69.50
35668;DHT22;22158;59.280;17.806;2023-06-10T09:02:54;18.30;69.20
35668;DHT22;22158;59.280;17.806;2023-06-10T09:05:20;18.50;67.10
35668;DHT22;22158;59.280;17.806;2023-06-10T09:07:48;18.60;67.80
35668;DHT22;22158;59.280;17.806;2023-06-10T09:10:14;18.80;68.10
35668;DHT22;22158;59.280;17.806;2023-06-10T09:12:39;18.80;64.90
35668;DHT22;22158;59.280;17.806;2023-06-10T09:15:06;18.80;67.40
35668;DHT22;22158;59.280;17.806;2023-06-10T09:17:32;18.90;65.40
35668;DHT22;22158;59.280;17.806;2023-06-10T09:19:59;18.90;66.30
35668;DHT22;22158;59.280;17.806;2023-06-10T09:22:25;19.00;64.40
35668;DHT22;22158;59.280;17.806;2023-06-10T09:25:01;19.00;66.40
35668;DHT22;22158;59.280;17.806;2023-06-10T09:27:30;19.10;66.60
35668;DHT22;22158;59.280;17.806;2023-06-10T09:29:56;19.20;64.30
35668;DHT22;22158;59.280;17.806;2023-06-10T09:32:24;19.20;64.80
35668;DHT22;22158;59.280;17.806;2023-06-10T09:34:50;19.20;65.70
35668;DHT22;22158;59.280;17.806;2023-06-10T09:37:25;19.30;67.20
35668;DHT22;22158;59.280;17.806;2023-06-10T09:40:07;19.50;64.60
35668;DHT22;22158;59.280;17.806;2023-06-10T09:42:38;19.50;63.80
35668;DHT22;22158;59.280;17.806;2023-06-10T09:45:05;19.70;65.90
35668;DHT22;22158;59.280;17.806;2023-06-10T09:47:31;19.80;64.20
35668;DHT22;22158;59.280;17.806;2023-06-10T09:49:57;19.90;63.50
35668;DHT22;22158;59.280;17.806;2023-06-10T09:52:26;20.10;61.50
35668;DHT22;22158;59.280;17.806;2023-06-10T09:54:59;20.40;59.70
35668;DHT22;22158;59.280;17.806;2023-06-10T09:57:25;20.50;63.30
35668;DHT22;22158;59.280;17.806;2023-06-10T09:59:54;20.70;62.20
35668;DHT22;22158;59.280;17.806;2023-06-10T10:02:20;20.70;59.90
35668;DHT22;22158;59.280;17.806;2023-06-10T10:04:46;20.60;59.10
35668;DHT22;22158;59.280;17.806;2023-06-10T10:07:12;20.50;62.50
35668;DHT22;22158;59.280;17.806;2023-06-10T10:09:38;20.40;60.20
35668;DHT22;22158;59.280;17.806;2023-06-10T10:14:33;20.70;62.80
35668;DHT22;22158;59.280;17.806;2023-06-10T10:17:00;21.00;60.50
35668;DHT22;22158;59.280;17.806;2023-06-10T10:19:31;21.20;60.10
35668;DHT22;22158;59.280;17.806;2023-06-10T10:22:07;21.20;59.50
35668;DHT22;22158;59.280;17.806;2023-06-10T10:24:42;21.30;59.10
35668;DHT22;22158;59.280;17.806;2023-06-10T10:27:17;21.50;58.80
35668;DHT22;22158;59.280;17.806;2023-06-10T10:29:46;21.40;56.90
35668;DHT22;22158;59.280;17.806;2023-06-10T10:32:13;21.60;56.30
35668;DHT22;22158;59.280;17.806;2023-06-10T10:34:53;21.70;57.10
35668;DHT22;22158;59.280;17.806;2023-06-10T10:37:22;21.70;56.40
35668;DHT22;22158;59.280;17.806;2023-06-10T10:39:48;21.70;58.40
35668;DHT22;22158;59.280;17.806;2023-06-10T10:42:14;21.80;58.00
35668;DHT22;22158;59.280;17.806;2023-06-10T10:44:41;22.10;58.70
35668;DHT22;22158;59.280;17.806;2023-06-10T10:47:11;22.40;57.70
35668;DHT22;22158;59.280;17.806;2023-06-10T10:49:37;22.50;55.60
35668;DHT22;22158;59.280;17.806;2023-06-10T10:52:04;22.80;56.60
35668;DHT22;22158;59.280;17.806;2023-06-10T10:54:34;23.00;56.80
35668;DHT22;22158;59.280;17.806;2023-06-10T11:05:02;23.10;55.80
35668;DHT22;22158;59.280;17.806;2023-06-10T11:07:31;22.90;52.50
35668;DHT22;22158;59.280;17.806;2023-06-10T11:10:04;22.70;52.60
35668;DHT22;22158;59.280;17.806;2023-06-10T11:15:23;22.70;53.30
35668;DHT22;22158;59.280;17.806;2023-06-10T11:18:13;23.00;55.70
35668;DHT22;22158;59.280;17.806;2023-06-10T11:20:55;23.40;55.40
35668;DHT22;22158;59.280;17.806;2023-06-10T11:23:40;23.60;52.90
35668;DHT22;22158;59.280;17.806;2023-06-10T11:31:27;23.70;53.80
35668;DHT22;22158;59.280;17.806;2023-06-10T11:34:00;23.80;53.10
35668;DHT22;22158;59.280;17.806;2023-06-10T11:36:27;24.10;53.50
35668;DHT22;22158;59.280;17.806;2023-06-10T11:38:59;24.10;52.70
35668;DHT22;22158;59.280;17.806;2023-06-10T11:41:26;24.10;51.30
35668;DHT22;22158;59.280;17.806;2023-06-10T11:43:56;23.80;51.70
35668;DHT22;22158;59.280;17.806;2023-06-10T11:46:22;23.80;52.50
35668;DHT22;22158;59.280;17.806;2023-06-10T11:48:58;23.90;52.30
35668;DHT22;22158;59.280;17.806;2023-06-10T11:51:29;24.10;52.30
35668;DHT22;22158;59.280;17.806;2023-06-10T11:53:55;24.30;51.90
35668;DHT22;22158;59.280;17.806;2023-06-10T11:56:21;24.40;51.50
35668;DHT22;22158;59.280;17.806;2023-06-10T11:58:53;24.60;52.20
35668;DHT22;22158;59.280;17.806;2023-06-10T12:01:20;24.40;50.90
35668;DHT22;22158;59.280;17.806;2023-06-10T12:03:47;24.60;52.20
35668;DHT22;22158;59.280;17.806;2023-06-10T12:06:13;24.70;52.20
35668;DHT22;22158;59.280;17.806;2023-06-10T12:08:42;25.00;52.20
35668;DHT22;22158;59.280;17.806;2023-06-10T12:11:08;25.10;50.90
35668;DHT22;22158;59.280;17.806;2023-06-10T12:13:34;25.20;50.40
35668;DHT22;22158;59.280;17.806;2023-06-10T12:16:07;25.20;49.70
35668;DHT22;22158;59.280;17.806;2023-06-10T12:18:33;25.40;49.20
35668;DHT22;22158;59.280;17.806;2023-06-10T12:20:59;25.40;49.50
35668;DHT22;22158;59.280;17.806;2023-06-10T12:23:24;25.10;47.80
35668;DHT22;22158;59.280;17.806;2023-06-10T12:25:55;24.80;48.80
35668;DHT22;22158;59.280;17.806;2023-06-10T12:28:25;24.80;48.30
35668;DHT22;22158;59.280;17.806;2023-06-10T12:30:51;25.00;50.40
35668;DHT22;22158;59.280;17.806;2023-06-10T12:33:21;25.30;50.00
35668;DHT22;22158;59.280;17.806;2023-06-10T12:35:51;25.50;50.00
35668;DHT22;22158;59.280;17.806;2023-06-10T12:38:26;25.70;49.70
35668;DHT22;22158;59.280;17.806;2023-06-10T12:41:01;25.70;47.90
35668;DHT22;22158;59.280;17.806;2023-06-10T12:43:31;26.10;49.10
35668;DHT22;22158;59.280;17.806;2023-06-10T12:46:08;25.90;46.20
35668;DHT22;22158;59.280;17.806;2023-06-10T12:48:34;25.50;47.60
35668;DHT22;22158;59.280;17.806;2023-06-10T12:51:00;25.40;47.30
35668;DHT22;22158;59.280;17.806;2023-06-10T12:53:26;25.20;47.10
35668;DHT22;22158;59.280;17.806;2023-06-10T12:55:52;25.20;49.10
35668;DHT22;22158;59.280;17.806;2023-06-10T12:58:21;25.20;49.30
35668;DHT22;22158;59.280;17.806;2023-06-10T13:00:48;25.50;47.70
35668;DHT22;22158;59.280;17.806;2023-06-10T13:03:14;25.40;46.90
35668;DHT22;22158;59.280;17.806;2023-06-10T13:05:40;25.20;47.10
35668;DHT22;22158;59.280;17.806;2023-06-10T13:08:07;25.20;48.20
35668;DHT22;22158;59.280;17.806;2023-06-10T13:10:33;25.30;47.60
35668;DHT22;22158;59.280;17.806;2023-06-10T13:13:00;25.40;48.10
35668;DHT22;22158;59.280;17.806;2023-06-10T13:15:27;25.60;46.90
35668;DHT22;22158;59.280;17.806;2023-06-10T13:17:52;25.70;47.70
35668;DHT22;22158;59.280;17.806;2023-06-10T13:20:19;26.10;46.70
35668;DHT22;22158;59.280;17.806;2023-06-10T13:22:45;26.10;47.90
35668;DHT22;22158;59.280;17.806;2023-06-10T13:25:11;26.30;46.60
35668;DHT22;22158;59.280;17.806;2023-06-10T13:27:37;26.50;46.00
35668;DHT22;22158;59.280;17.806;2023-06-10T13:30:07;26.40;46.10
35668;DHT22;22158;59.280;17.806;2023-06-10T13:32:33;26.50;48.40
35668;DHT22;22158;59.280;17.806;2023-06-10T13:34:59;26.70;47.60
35668;DHT22;22158;59.280;17.806;2023-06-10T13:37:24;26.70;44.90
35668;DHT22;22158;59.280;17.806;2023-06-10T13:39:50;26.70;46.10
35668;DHT22;22158;59.280;17.806;2023-06-10T13:42:17;26.10;44.90
35668;DHT22;22158;59.280;17.806;2023-06-10T13:44:42;25.70;45.00
35668;DHT22;22158;59.280;17.806;2023-06-10T13:47:08;25.90;48.70
35668;DHT22;22158;59.280;17.806;2023-06-10T13:49:34;26.30;47.60
35668;DHT22;22158;59.280;17.806;2023-06-10T13:51:59;26.70;47.00
35668;DHT22;22158;59.280;17.806;2023-06-10T13:54:25;27.10;47.60
35668;DHT22;22158;59.280;17.806;2023-06-10T13:56:51;27.30;45.90
35668;DHT22;22158;59.280;17.806;2023-06-10T13:59:16;27.20;47.90
35668;DHT22;22158;59.280;17.806;2023-06-10T14:01:43;26.90;45.10
35668;DHT22;22158;59.280;17.806;2023-06-10T14:04:10;27.00;46.30
35668;DHT22;22158;59.280;17.806;2023-06-10T14:06:35;26.70;47.10
35668;DHT22;22158;59.280;17.806;2023-06-10T14:09:01;26.80;45.10
35668;DHT22;22158;59.280;17.806;2023-06-10T14:11:26;26.70;45.70
35668;DHT22;22158;59.280;17.806;2023-06-10T14:13:52;26.80;44.80
35668;DHT22;22158;59.280;17.806;2023-06-10T14:16:18;26.90;45.00
35668;DHT22;22158;59.280;17.806;2023-06-10T14:18:43;26.80;44.30
35668;DHT22;22158;59.280;17.806;2023-06-10T14:21:09;26.60;44.60
35668;DHT22;22158;59.280;17.806;2023-06-10T14:23:35;26.90;45.10
35668;DHT22;22158;59.280;17.806;2023-06-10T14:26:00;26.80;43.90
35668;DHT22;22158;59.280;17.806;2023-06-10T14:28:28;27.00;45.50
35668;DHT22;22158;59.280;17.806;2023-06-10T14:30:54;27.20;45.80
35668;DHT22;22158;59.280;17.806;2023-06-10T14:33:20;27.40;44.90
35668;DHT22;22158;59.280;17.806;2023-06-10T14:35:45;27.40;44.40
35668;DHT22;22158;59.280;17.806;2023-06-10T14:38:11;27.30;44.60
35668;DHT22;22158;59.280;17.806;2023-06-10T14:40:37;27.20;44.70
35668;DHT22;22158;59.280;17.806;2023-06-10T14:43:02;27.60;44.40
35668;DHT22;22158;59.280;17.806;2023-06-10T14:45:38;27.50;43.10
35668;DHT22;22158;59.280;17.806;2023-06-10T14:48:04;27.60;44.40
35668;DHT22;22158;59.280;17.806;2023-06-10T14:50:30;27.40;43.20
35668;DHT22;22158;59.280;17.806;2023-06-10T14:52:56;27.10;44.50
35668;DHT22;22158;59.280;17.806;2023-06-10T14:55:21;27.20;45.10
35668;DHT22;22158;59.280;17.806;2023-06-10T14:57:50;27.40;44.70
35668;DHT22;22158;59.280;17.806;2023-06-10T15:00:16;27.70;44.20
35668;DHT22;22158;59.280;17.806;2023-06-10T15:02:45;28.00;43.60
35668;DHT22;22158;59.280;17.806;2023-06-10T15:05:13;28.00;44.40
35668;DHT22;22158;59.280;17.806;2023-06-10T15:07:40;28.10;43.80
35668;DHT22;22158;59.280;17.806;2023-06-10T15:10:06;28.10;44.60
35668;DHT22;22158;59.280;17.806;2023-06-10T15:12:32;28.20;45.20
35668;DHT22;22158;59.280;17.806;2023-06-10T15:14:57;27.90;44.30
35668;DHT22;22158;59.280;17.806;2023-06-10T15:17:23;27.80;44.10
35668;DHT22;22158;59.280;17.806;2023-06-10T15:19:48;27.90;44.80
35668;DHT22;22158;59.280;17.806;2023-06-10T15:22:14;28.10;44.10
35668;DHT22;22158;59.280;17.806;2023-06-10T15:24:40;28.10;42.70
35668;DHT22;22158;59.280;17.806;2023-06-10T15:27:05;28.00;43.90
35668;DHT22;22158;59.280;17.806;2023-06-10T15:29:32;27.90;44.20
35668;DHT22;22158;59.280;17.806;2023-06-10T15:31:57;27.70;44.20
35668;DHT22;22158;59.280;17.806;2023-06-10T15:34:23;27.60;44.20
35668;DHT22;22158;59.280;17.806;2023-06-10T15:36:48;27.50;43.60
35668;DHT22;22158;59.280;17.806;2023-06-10T15:39:14;27.30;44.70
35668;DHT22;22158;59.280;17.806;2023-06-10T15:41:40;26.90;43.90